sensor_id;sensor_type;location;lat;lon;timestamp;temperature;humidity
6740;DHT22;3407;49.882;10.920;2022-09-09T00:06:37;13.60;1.00
6740;DHT22;3407;49.882;10.920;2022-09-09T00:11:46;13.50;1.00
6740;DHT22;3407;49.882;10.920;2022-09-09T00:16:47;13.50;1.00
6740;DHT22;3407;49.882;10.920;2022-09-09T00:21:55;13.50;1.00
6740;DHT22;3407;49.882;10.920;2022-09-09T00:26:57;13.50;1.00
6740;DHT22;3407;49.882;10.920;2022-09-09T00:32:04;13.50;1.00
6740;DHT22;3407;49.882;10.920;2022-09-09T00:37:02;13.80;1.00
6740;DHT22;3407;49.882;10.920;2022-09-09T00:42:18;14.00;1.00
6740;DHT22;3407;49.882;10.920;2022-09-09T00:57:25;14.20;1.00
6740;DHT22;3407;49.882;10.920;2022-09-09T01:02:30;14.20;1.00
6740;DHT22;3407;49.882;10.920;2022-09-09T01:07:27;14.20;1.00
6740;DHT22;3407;49.882;10.920;2022-09-09T01:12:41;14.20;1.00
6740;DHT22;3407;49.882;10.920;2022-09-09T01:17:56;14.10;1.00
6740;DHT22;3407;49.882;10.920;2022-09-09T01:23:34;14.10;1.00
6740;DHT22;3407;49.882;10.920;2022-09-09T01:28:33;14.10;1.00
6740;DHT22;3407;49.882;10.920;2022-09-09T01:33:30;14.20;1.00
6740;DHT22;3407;49.882;10.920;2022-09-09T01:38:28;14.20;1.00
6740;DHT22;3407;49.882;10.920;2022-09-09T01:43:25;14.00;1.00
6740;DHT22;3407;49.882;10.920;2022-09-09T01:48:22;13.90;1.00
6740;DHT22;3407;49.882;10.920;2022-09-09T01:53:20;13.80;1.00
6740;DHT22;3407;49.882;10.920;2022-09-09T01:58:31;13.70;1.00
6740;DHT22;3407;49.882;10.920;2022-09-09T02:03:28;13.70;1.00
6740;DHT22;3407;49.882;10.920;2022-09-09T02:08:29;13.80;1.00
6740;DHT22;3407;49.882;10.920;2022-09-09T02:13:26;14.00;1.00
6740;DHT22;3407;49.882;10.920;2022-09-09T02:18:28;14.10;1.00
6740;DHT22;3407;49.882;10.920;2022-09-09T02:23:26;14.10;1.00
6740;DHT22;3407;49.882;10.920;2022-09-09T02:28:25;14.10;1.00
6740;DHT22;3407;49.882;10.920;2022-09-09T02:33:28;14.10;1.00
6740;DHT22;3407;49.882;10.920;2022-09-09T02:38:29;14.20;1.00
6740;DHT22;3407;49.882;10.920;2022-09-09T02:43:34;14.20;1.00
6740;DHT22;3407;49.882;10.920;2022-09-09T02:48:44;14.30;1.00
6740;DHT22;3407;49.882;10.920;2022-09-09T02:53:50;14.30;1.00
6740;DHT22;3407;49.882;10.920;2022-09-09T02:58:49;14.40;1.00
6740;DHT22;3407;49.882;10.920;2022-09-09T03:03:47;14.50;1.00
6740;DHT22;3407;49.882;10.920;2022-09-09T03:08:43;14.60;1.00
6740;DHT22;3407;49.882;10.920;2022-09-09T03:13:38;14.60;1.00
6740;DHT22;3407;49.882;10.920;2022-09-09T03:18:34;14.70;1.00
6740;DHT22;3407;49.882;10.920;2022-09-09T03:23:29;14.70;1.00
6740;DHT22;3407;49.882;10.920;2022-09-09T03:28:25;14.80;1.00
6740;DHT22;3407;49.882;10.920;2022-09-09T03:33:26;14.80;1.00
6740;DHT22;3407;49.882;10.920;2022-09-09T03:38:23;14.80;1.00
6740;DHT22;3407;49.882;10.920;2022-09-09T03:43:18;14.80;1.00
6740;DHT22;3407;49.882;10.920;2022-09-09T03:48:16;14.80;1.00
6740;DHT22;3407;49.882;10.920;2022-09-09T03:53:11;14.80;1.00
6740;DHT22;3407;49.882;10.920;2022-09-09T03:58:07;14.80;1.00
6740;DHT22;3407;49.882;10.920;2022-09-09T04:03:03;14.90;1.00
6740;DHT22;3407;49.882;10.920;2022-09-09T04:07:58;14.90;1.00
6740;DHT22;3407;49.882;10.920;2022-09-09T04:12:54;14.90;1.00
6740;DHT22;3407;49.882;10.920;2022-09-09T04:17:50;15.00;1.00
6740;DHT22;3407;49.882;10.920;2022-09-09T04:22:46;14.90;1.00
6740;DHT22;3407;49.882;10.920;2022-09-09T04:27:41;14.90;1.00
6740;DHT22;3407;49.882;10.920;2022-09-09T04:32:38;14.90;1.00
6740;DHT22;3407;49.882;10.920;2022-09-09T04:37:33;14.90;1.00
6740;DHT22;3407;49.882;10.920;2022-09-09T04:42:29;15.00;1.00
6740;DHT22;3407;49.882;10.920;2022-09-09T04:47:24;15.00;1.00
6740;DHT22;3407;49.882;10.920;2022-09-09T04:52:20;15.00;1.00
6740;DHT22;3407;49.882;10.920;2022-09-09T04:57:16;15.00;1.00
6740;DHT22;3407;49.882;10.920;2022-09-09T05:02:11;15.10;1.00
6740;DHT22;3407;49.882;10.920;2022-09-09T05:07:07;15.10;1.00
6740;DHT22;3407;49.882;10.920;2022-09-09T05:12:03;15.20;1.00
6740;DHT22;3407;49.882;10.920;2022-09-09T05:16:59;15.20;1.00
6740;DHT22;3407;49.882;10.920;2022-09-09T05:21:55;15.30;1.00
6740;DHT22;3407;49.882;10.920;2022-09-09T05:26:50;15.30;1.00
6740;DHT22;3407;49.882;10.920;2022-09-09T05:31:46;15.30;1.00
6740;DHT22;3407;49.882;10.920;2022-09-09T05:36:42;15.40;1.00
6740;DHT22;3407;49.882;10.920;2022-09-09T05:41:37;15.40;1.00
6740;DHT22;3407;49.882;10.920;2022-09-09T05:46:33;15.60;1.00
6740;DHT22;3407;49.882;10.920;2022-09-09T05:51:29;15.80;99.90
6740;DHT22;3407;49.882;10.920;2022-09-09T05:56:28;16.00;99.90
6740;DHT22;3407;49.882;10.920;2022-09-09T06:01:30;16.20;1.00
6740;DHT22;3407;49.882;10.920;2022-09-09T06:06:29;16.20;1.00
6740;DHT22;3407;49.882;10.920;2022-09-09T06:11:28;16.00;1.00
6740;DHT22;3407;49.882;10.920;2022-09-09T06:16:28;16.00;1.00
6740;DHT22;3407;49.882;10.920;2022-09-09T06:21:26;16.10;1.00
6740;DHT22;3407;49.882;10.920;2022-09-09T06:26:24;16.30;99.90
6740;DHT22;3407;49.882;10.920;2022-09-09T06:31:22;16.40;1.00
6740;DHT22;3407;49.882;10.920;2022-09-09T06:36:24;16.90;1.00
6740;DHT22;3407;49.882;10.920;2022-09-09T06:41:21;17.60;99.90
6740;DHT22;3407;49.882;10.920;2022-09-09T06:46:22;18.00;99.90
6740;DHT22;3407;49.882;10.920;2022-09-09T06:51:20;18.30;99.90
6740;DHT22;3407;49.882;10.920;2022-09-09T06:56:20;18.30;1.00
6740;DHT22;3407;49.882;10.920;2022-09-09T07:01:23;18.60;1.00
6740;DHT22;3407;49.882;10.920;2022-09-09T07:06:22;18.70;99.90
6740;DHT22;3407;49.882;10.920;2022-09-09T07:11:20;18.60;1.00
6740;DHT22;3407;49.882;10.920;2022-09-09T07:16:17;18.60;1.00
6740;DHT22;3407;49.882;10.920;2022-09-09T07:21:14;18.80;1.00
6740;DHT22;3407;49.882;10.920;2022-09-09T07:26:12;19.00;99.90
6740;DHT22;3407;49.882;10.920;2022-09-09T07:31:20;19.90;49.60
6740;DHT22;3407;49.882;10.920;2022-09-09T07:36:22;20.60;1.00
6740;DHT22;3407;49.882;10.920;2022-09-09T07:41:24;20.90;1.00
6740;DHT22;3407;49.882;10.920;2022-09-09T07:46:22;20.80;1.00
6740;DHT22;3407;49.882;10.920;2022-09-09T07:51:22;21.20;99.90
6740;DHT22;3407;49.882;10.920;2022-09-09T07:56:18;21.70;99.90
6740;DHT22;3407;49.882;10.920;2022-09-09T08:06:17;21.70;99.90
6740;DHT22;3407;49.882;10.920;2022-09-09T08:11:14;21.60;99.90
6740;DHT22;3407;49.882;10.920;2022-09-09T08:16:11;21.70;99.90
6740;DHT22;3407;49.882;10.920;2022-09-09T08:21:10;21.30;99.90
6740;DHT22;3407;49.882;10.920;2022-09-09T08:26:50;21.00;99.90
6740;DHT22;3407;49.882;10.920;2022-09-09T08:31:47;21.30;99.90
6740;DHT22;3407;49.882;10.920;2022-09-09T08:36:44;21.50;99.90
6740;DHT22;3407;49.882;10.920;2022-09-09T08:47:06;21.10;99.90
6740;DHT22;3407;49.882;10.920;2022-09-09T08:52:13;21.40;99.90
6740;DHT22;3407;49.882;10.920;2022-09-09T08:57:14;21.60;99.90
6740;DHT22;3407;49.882;10.920;2022-09-09T09:02:24;21.90;99.90
6740;DHT22;3407;49.882;10.920;2022-09-09T09:07:32;22.20;99.90
6740;DHT22;3407;49.882;10.920;2022-09-09T09:12:40;22.50;99.90
6740;DHT22;3407;49.882;10.920;2022-09-09T09:17:37;23.10;99.90
6740;DHT22;3407;49.882;10.920;2022-09-09T09:37:56;24.70;99.90
6740;DHT22;3407;49.882;10.920;2022-09-09T09:42:58;24.00;99.90
6740;DHT22;3407;49.882;10.920;2022-09-09T09:48:06;23.50;99.90
6740;DHT22;3407;49.882;10.920;2022-09-09T09:53:04;23.80;99.90
6740;DHT22;3407;49.882;10.920;2022-09-09T09:58:06;24.80;99.90
6740;DHT22;3407;49.882;10.920;2022-09-09T10:08:18;24.20;99.90
6740;DHT22;3407;49.882;10.920;2022-09-09T10:13:21;24.40;99.90
6740;DHT22;3407;49.882;10.920;2022-09-09T10:18:36;24.20;99.90
6740;DHT22;3407;49.882;10.920;2022-09-09T10:23:49;24.00;99.90
6740;DHT22;3407;49.882;10.920;2022-09-09T10:34:08;29.90;94.20
6740;DHT22;3407;49.882;10.920;2022-09-09T10:50:05;25.30;98.00
6740;DHT22;3407;49.882;10.920;2022-09-09T10:55:20;27.00;96.70
6740;DHT22;3407;49.882;10.920;2022-09-09T11:00:24;27.90;92.20
6740;DHT22;3407;49.882;10.920;2022-09-09T11:05:43;31.60;66.10
6740;DHT22;3407;49.882;10.920;2022-09-09T11:11:13;33.20;44.40
6740;DHT22;3407;49.882;10.920;2022-09-09T11:21:36;35.70;23.30
6740;DHT22;3407;49.882;10.920;2022-09-09T11:26:39;36.60;18.90
6740;DHT22;3407;49.882;10.920;2022-09-09T11:42:23;28.90;30.10
6740;DHT22;3407;49.882;10.920;2022-09-09T11:47:30;29.90;32.40
6740;DHT22;3407;49.882;10.920;2022-09-09T11:52:38;31.70;24.40
6740;DHT22;3407;49.882;10.920;2022-09-09T11:57:36;31.80;21.90
6740;DHT22;3407;49.882;10.920;2022-09-09T12:02:31;33.30;18.20
6740;DHT22;3407;49.882;10.920;2022-09-09T12:12:41;29.50;18.20
6740;DHT22;3407;49.882;10.920;2022-09-09T12:17:42;27.20;24.90
6740;DHT22;3407;49.882;10.920;2022-09-09T12:23:15;25.30;29.20
6740;DHT22;3407;49.882;10.920;2022-09-09T12:28:22;23.80;33.10
6740;DHT22;3407;49.882;10.920;2022-09-09T12:33:19;22.90;36.50
6740;DHT22;3407;49.882;10.920;2022-09-09T12:38:38;22.50;39.10
6740;DHT22;3407;49.882;10.920;2022-09-09T12:43:34;22.10;41.40
6740;DHT22;3407;49.882;10.920;2022-09-09T12:48:39;21.60;51.50
6740;DHT22;3407;49.882;10.920;2022-09-09T12:53:37;21.10;63.20
6740;DHT22;3407;49.882;10.920;2022-09-09T12:58:35;20.70;89.50
6740;DHT22;3407;49.882;10.920;2022-09-09T13:03:32;20.80;99.90
6740;DHT22;3407;49.882;10.920;2022-09-09T13:08:28;21.10;99.90
6740;DHT22;3407;49.882;10.920;2022-09-09T13:18:29;21.30;99.90
6740;DHT22;3407;49.882;10.920;2022-09-09T13:23:33;21.50;99.90
6740;DHT22;3407;49.882;10.920;2022-09-09T13:28:30;22.10;99.90
6740;DHT22;3407;49.882;10.920;2022-09-09T13:33:31;23.30;99.90
6740;DHT22;3407;49.882;10.920;2022-09-09T13:38:31;23.70;98.30
6740;DHT22;3407;49.882;10.920;2022-09-09T13:43:27;23.70;97.00
6740;DHT22;3407;49.882;10.920;2022-09-09T13:48:24;23.60;93.80
6740;DHT22;3407;49.882;10.920;2022-09-09T13:53:21;23.70;92.90
6740;DHT22;3407;49.882;10.920;2022-09-09T13:58:17;24.00;91.70
6740;DHT22;3407;49.882;10.920;2022-09-09T14:03:18;24.30;88.40
6740;DHT22;3407;49.882;10.920;2022-09-09T14:08:23;23.80;84.30
6740;DHT22;3407;49.882;10.920;2022-09-09T14:13:20;23.50;87.10
6740;DHT22;3407;49.882;10.920;2022-09-09T14:18:17;23.30;90.10
6740;DHT22;3407;49.882;10.920;2022-09-09T14:23:12;23.20;91.50
6740;DHT22;3407;49.882;10.920;2022-09-09T14:28:10;23.60;93.10
6740;DHT22;3407;49.882;10.920;2022-09-09T14:33:07;23.50;91.60
6740;DHT22;3407;49.882;10.920;2022-09-09T14:38:04;23.20;92.80
6740;DHT22;3407;49.882;10.920;2022-09-09T14:42:59;22.90;94.00
6740;DHT22;3407;49.882;10.920;2022-09-09T14:47:55;22.90;94.50
6740;DHT22;3407;49.882;10.920;2022-09-09T14:52:51;22.70;96.70
6740;DHT22;3407;49.882;10.920;2022-09-09T14:57:46;22.70;97.20
6740;DHT22;3407;49.882;10.920;2022-09-09T15:02:42;22.60;97.50
6740;DHT22;3407;49.882;10.920;2022-09-09T15:07:37;22.50;98.70
6740;DHT22;3407;49.882;10.920;2022-09-09T15:12:33;22.60;98.10
6740;DHT22;3407;49.882;10.920;2022-09-09T15:17:30;22.70;99.80
6740;DHT22;3407;49.882;10.920;2022-09-09T15:22:26;22.80;97.10
6740;DHT22;3407;49.882;10.920;2022-09-09T15:27:21;22.80;92.60
6740;DHT22;3407;49.882;10.920;2022-09-09T15:32:18;22.80;92.50
6740;DHT22;3407;49.882;10.920;2022-09-09T15:37:13;22.70;93.60
6740;DHT22;3407;49.882;10.920;2022-09-09T15:42:09;22.60;94.40
6740;DHT22;3407;49.882;10.920;2022-09-09T15:47:05;22.60;95.70
6740;DHT22;3407;49.882;10.920;2022-09-09T15:52:01;22.50;96.30
6740;DHT22;3407;49.882;10.920;2022-09-09T15:57:02;22.50;94.10
6740;DHT22;3407;49.882;10.920;2022-09-09T16:01:58;22.40;94.70
6740;DHT22;3407;49.882;10.920;2022-09-09T16:06:57;22.30;94.20
6740;DHT22;3407;49.882;10.920;2022-09-09T16:11:56;22.10;94.20
6740;DHT22;3407;49.882;10.920;2022-09-09T16:16:53;22.00;93.00
6740;DHT22;3407;49.882;10.920;2022-09-09T16:21:49;21.80;92.10
6740;DHT22;3407;49.882;10.920;2022-09-09T16:26:47;21.80;91.90
6740;DHT22;3407;49.882;10.920;2022-09-09T16:31:44;21.70;92.30
6740;DHT22;3407;49.882;10.920;2022-09-09T16:36:41;21.40;91.40
6740;DHT22;3407;49.882;10.920;2022-09-09T16:41:38;21.20;92.90
6740;DHT22;3407;49.882;10.920;2022-09-09T16:46:37;20.90;93.90
6740;DHT22;3407;49.882;10.920;2022-09-09T16:51:39;20.80;97.20
6740;DHT22;3407;49.882;10.920;2022-09-09T16:56:37;20.60;98.30
6740;DHT22;3407;49.882;10.920;2022-09-09T17:01:35;20.60;98.70
6740;DHT22;3407;49.882;10.920;2022-09-09T17:06:36;20.50;99.90
6740;DHT22;3407;49.882;10.920;2022-09-09T17:11:33;20.50;99.90
6740;DHT22;3407;49.882;10.920;2022-09-09T17:16:31;20.30;99.90
6740;DHT22;3407;49.882;10.920;2022-09-09T17:21:28;20.20;99.90
6740;DHT22;3407;49.882;10.920;2022-09-09T17:26:28;20.00;99.90
6740;DHT22;3407;49.882;10.920;2022-09-09T17:31:24;19.90;99.90
6740;DHT22;3407;49.882;10.920;2022-09-09T17:36:27;19.80;99.90
6740;DHT22;3407;49.882;10.920;2022-09-09T17:41:35;19.80;99.90
6740;DHT22;3407;49.882;10.920;2022-09-09T17:46:35;19.70;99.90
6740;DHT22;3407;49.882;10.920;2022-09-09T17:51:32;19.50;99.90
6740;DHT22;3407;49.882;10.920;2022-09-09T17:56:30;19.50;99.90
6740;DHT22;3407;49.882;10.920;2022-09-09T18:01:29;19.40;99.90
6740;DHT22;3407;49.882;10.920;2022-09-09T18:06:28;19.30;99.90
6740;DHT22;3407;49.882;10.920;2022-09-09T18:11:28;19.20;99.90
6740;DHT22;3407;49.882;10.920;2022-09-09T18:16:26;19.10;99.90
6740;DHT22;3407;49.882;10.920;2022-09-09T18:21:22;18.90;99.90
6740;DHT22;3407;49.882;10.920;2022-09-09T18:26:22;18.80;99.90
6740;DHT22;3407;49.882;10.920;2022-09-09T18:31:21;18.70;99.90
6740;DHT22;3407;49.882;10.920;2022-09-09T18:36:25;18.60;99.90
6740;DHT22;3407;49.882;10.920;2022-09-09T18:41:24;18.50;99.90
6740;DHT22;3407;49.882;10.920;2022-09-09T18:46:23;18.30;99.90
6740;DHT22;3407;49.882;10.920;2022-09-09T18:51:22;18.10;99.90
6740;DHT22;3407;49.882;10.920;2022-09-09T18:56:18;17.90;99.90
6740;DHT22;3407;49.882;10.920;2022-09-09T19:01:14;17.80;99.90
6740;DHT22;3407;49.882;10.920;2022-09-09T19:06:12;17.70;99.90
6740;DHT22;3407;49.882;10.920;2022-09-09T19:11:13;17.60;99.90
6740;DHT22;3407;49.882;10.920;2022-09-09T19:16:13;17.60;99.90
6740;DHT22;3407;49.882;10.920;2022-09-09T19:21:10;17.60;99.90
6740;DHT22;3407;49.882;10.920;2022-09-09T19:26:07;17.60;99.90
6740;DHT22;3407;49.882;10.920;2022-09-09T19:31:07;17.60;99.90
6740;DHT22;3407;49.882;10.920;2022-09-09T19:36:05;17.50;99.90
6740;DHT22;3407;49.882;10.920;2022-09-09T19:41:03;17.50;99.90
6740;DHT22;3407;49.882;10.920;2022-09-09T19:46:07;17.50;99.90
6740;DHT22;3407;49.882;10.920;2022-09-09T19:51:05;17.50;99.90
6740;DHT22;3407;49.882;10.920;2022-09-09T19:56:02;17.50;99.90
6740;DHT22;3407;49.882;10.920;2022-09-09T20:01:14;17.50;99.90
6740;DHT22;3407;49.882;10.920;2022-09-09T20:06:12;17.60;99.90
6740;DHT22;3407;49.882;10.920;2022-09-09T20:11:08;17.60;99.90
6740;DHT22;3407;49.882;10.920;2022-09-09T20:16:12;17.60;99.90
6740;DHT22;3407;49.882;10.920;2022-09-09T20:21:14;17.50;1.00
6740;DHT22;3407;49.882;10.920;2022-09-09T20:26:12;17.50;99.90
6740;DHT22;3407;49.882;10.920;2022-09-09T20:31:10;17.50;1.00
6740;DHT22;3407;49.882;10.920;2022-09-09T20:36:18;17.50;1.00
6740;DHT22;3407;49.882;10.920;2022-09-09T20:41:15;17.40;1.00
6740;DHT22;3407;49.882;10.920;2022-09-09T20:46:13;17.40;1.00
6740;DHT22;3407;49.882;10.920;2022-09-09T20:51:08;17.20;1.00
6740;DHT22;3407;49.882;10.920;2022-09-09T20:56:05;17.10;1.00
6740;DHT22;3407;49.882;10.920;2022-09-09T21:01:03;17.00;1.00
6740;DHT22;3407;49.882;10.920;2022-09-09T21:05:59;16.90;50.70
6740;DHT22;3407;49.882;10.920;2022-09-09T21:10:55;16.90;99.90
6740;DHT22;3407;49.882;10.920;2022-09-09T21:15:51;16.70;99.90
6740;DHT22;3407;49.882;10.920;2022-09-09T21:20:46;16.60;99.90
6740;DHT22;3407;49.882;10.920;2022-09-09T21:25:42;16.50;1.00
6740;DHT22;3407;49.882;10.920;2022-09-09T21:30:38;16.40;1.00
6740;DHT22;3407;49.882;10.920;2022-09-09T21:35:38;16.40;37.30
6740;DHT22;3407;49.882;10.920;2022-09-09T21:40:38;16.30;47.20
6740;DHT22;3407;49.882;10.920;2022-09-09T21:45:34;16.20;99.90
6740;DHT22;3407;49.882;10.920;2022-09-09T21:50:30;16.10;1.00
6740;DHT22;3407;49.882;10.920;2022-09-09T21:55:33;16.10;99.90
6740;DHT22;3407;49.882;10.920;2022-09-09T22:00:30;16.00;99.90
6740;DHT22;3407;49.882;10.920;2022-09-09T22:05:26;16.00;1.00
6740;DHT22;3407;49.882;10.920;2022-09-09T22:10:22;15.90;1.00
6740;DHT22;3407;49.882;10.920;2022-09-09T22:15:17;15.80;1.90
6740;DHT22;3407;49.882;10.920;2022-09-09T22:20:13;15.80;1.00
6740;DHT22;3407;49.882;10.920;2022-09-09T22:25:09;15.80;1.00
6740;DHT22;3407;49.882;10.920;2022-09-09T22:30:05;15.90;1.00
6740;DHT22;3407;49.882;10.920;2022-09-09T22:35:00;15.90;1.00
6740;DHT22;3407;49.882;10.920;2022-09-09T22:39:56;15.90;99.90
6740;DHT22;3407;49.882;10.920;2022-09-09T22:44:52;16.00;1.00
6740;DHT22;3407;49.882;10.920;2022-09-09T22:49:47;16.10;1.00
6740;DHT22;3407;49.882;10.920;2022-09-09T22:54:43;16.10;1.00
6740;DHT22;3407;49.882;10.920;2022-09-09T22:59:39;16.00;1.00
6740;DHT22;3407;49.882;10.920;2022-09-09T23:04:35;16.00;1.00
6740;DHT22;3407;49.882;10.920;2022-09-09T23:09:33;16.00;1.00
6740;DHT22;3407;49.882;10.920;2022-09-09T23:14:29;16.10;1.00
6740;DHT22;3407;49.882;10.920;2022-09-09T23:19:26;16.10;63.50
6740;DHT22;3407;49.882;10.920;2022-09-09T23:24:23;16.10;1.00
6740;DHT22;3407;49.882;10.920;2022-09-09T23:29:18;16.10;1.00
6740;DHT22;3407;49.882;10.920;2022-09-09T23:34:14;16.20;1.00
6740;DHT22;3407;49.882;10.920;2022-09-09T23:39:11;16.20;1.00
6740;DHT22;3407;49.882;10.920;2022-09-09T23:44:07;16.30;1.00
6740;DHT22;3407;49.882;10.920;2022-09-09T23:49:03;16.20;41.30
6740;DHT22;3407;49.882;10.920;2022-09-09T23:53:59;16.20;1.00
6740;DHT22;3407;49.882;10.920;2022-09-09T23:58:57;16.20;43.20
